createdAt,value
2018-02-16T00:01:52.131Z,4.20
2018-02-16T00:04:19.639Z,4.10
2018-02-16T00:06:47.208Z,4.10
2018-02-16T00:09:14.660Z,4.20
2018-02-16T00:11:42.125Z,4.20
2018-02-16T00:14:09.700Z,4.20
2018-02-16T00:16:37.160Z,4.10
2018-02-16T00:19:04.723Z,4.10
2018-02-16T00:21:32.204Z,4.10
2018-02-16T00:23:59.686Z,4.10
2018-02-16T00:26:27.136Z,4.10
2018-02-16T00:28:55.033Z,4.20
2018-02-16T00:31:23.061Z,4.20
2018-02-16T00:33:50.624Z,4.20
2018-02-16T00:36:18.442Z,4.10
2018-02-16T00:38:45.952Z,4.20
2018-02-16T00:41:13.476Z,4.20
2018-02-16T00:43:40.979Z,4.20
2018-02-16T00:46:08.494Z,4.20
2018-02-16T00:48:35.944Z,4.20
2018-02-16T00:51:03.473Z,4.20
2018-02-16T00:53:30.945Z,4.20
2018-02-16T00:55:58.804Z,4.10
2018-02-16T00:58:26.271Z,4.10
2018-02-16T01:00:54.132Z,4.10
2018-02-16T01:03:21.590Z,4.10
2018-02-16T01:05:49.141Z,4.20
2018-02-16T01:08:16.608Z,4.20
2018-02-16T01:10:44.087Z,4.20
2018-02-16T01:13:11.552Z,4.20
2018-02-16T01:15:38.994Z,4.10
2018-02-16T01:18:06.453Z,4.10
2018-02-16T01:20:33.926Z,4.20
2018-02-16T01:23:01.625Z,4.20
2018-02-16T01:25:29.494Z,4.20
2018-02-16T01:27:58.259Z,4.20
2018-02-16T01:30:25.807Z,4.20
2018-02-16T01:32:53.368Z,4.10
2018-02-16T01:35:20.852Z,4.10
2018-02-16T01:37:48.512Z,4.10
2018-02-16T01:40:15.968Z,4.10
2018-02-16T01:42:43.460Z,4.00
2018-02-16T01:45:12.330Z,3.90
2018-02-16T01:47:39.891Z,3.90
2018-02-16T01:50:07.440Z,3.90
2018-02-16T01:52:34.919Z,3.90
2018-02-16T01:55:02.380Z,3.90
2018-02-16T01:57:29.852Z,3.90
2018-02-16T01:59:57.314Z,3.90
2018-02-16T02:02:24.772Z,4.00
2018-02-16T02:04:52.316Z,4.00
2018-02-16T02:07:19.795Z,4.00
2018-02-16T02:09:47.347Z,4.00
2018-02-16T02:12:15.091Z,4.00
2018-02-16T02:14:42.571Z,4.00
2018-02-16T02:17:10.033Z,4.00
2018-02-16T02:19:37.479Z,4.00
2018-02-16T02:22:04.961Z,4.00
2018-02-16T02:24:32.413Z,4.00
2018-02-16T02:26:59.868Z,4.10
2018-02-16T02:29:27.363Z,4.00
2018-02-16T02:31:54.804Z,4.00
2018-02-16T02:34:22.257Z,4.10
2018-02-16T02:36:49.738Z,4.00
2018-02-16T02:39:17.296Z,4.10
2018-02-16T02:41:44.745Z,4.00
2018-02-16T02:44:12.222Z,4.10
2018-02-16T02:46:39.688Z,4.00
2018-02-16T02:49:07.144Z,4.00
2018-02-16T02:51:34.672Z,3.90
2018-02-16T02:54:02.163Z,3.90
2018-02-16T02:56:29.728Z,3.90
2018-02-16T02:58:57.180Z,3.90
2018-02-16T03:01:24.629Z,3.90
2018-02-16T03:03:52.084Z,3.90
2018-02-16T03:06:19.581Z,3.80
2018-02-16T03:08:47.651Z,3.90
2018-02-16T03:11:15.107Z,3.90
2018-02-16T03:13:42.576Z,3.90
2018-02-16T03:16:10.042Z,3.90
2018-02-16T03:18:37.490Z,3.90
2018-02-16T03:21:05.030Z,3.90
2018-02-16T03:23:32.516Z,3.90
2018-02-16T03:25:59.992Z,3.90
2018-02-16T03:28:27.556Z,3.90
2018-02-16T03:30:55.030Z,3.90
2018-02-16T03:33:23.465Z,3.90
2018-02-16T03:35:50.907Z,3.90
2018-02-16T03:38:18.761Z,3.90
2018-02-16T03:40:47.488Z,3.90
2018-02-16T03:43:14.938Z,3.80
2018-02-16T03:45:42.440Z,3.80
2018-02-16T03:48:09.896Z,3.80
2018-02-16T03:50:37.355Z,3.80
2018-02-16T03:53:04.808Z,3.80
2018-02-16T03:55:32.266Z,3.70
2018-02-16T03:57:59.754Z,3.60
2018-02-16T04:00:27.217Z,3.60
2018-02-16T04:02:54.693Z,3.60
2018-02-16T04:05:22.236Z,3.60
2018-02-16T04:07:49.697Z,3.60
2018-02-16T04:10:17.265Z,3.60
2018-02-16T04:12:44.725Z,3.60
2018-02-16T04:15:12.175Z,3.60
2018-02-16T04:17:39.648Z,3.50
2018-02-16T04:20:07.096Z,3.60
2018-02-16T04:22:34.576Z,3.50
2018-02-16T04:25:02.028Z,3.60
2018-02-16T04:27:29.480Z,3.50
2018-02-16T04:29:56.932Z,3.50
2018-02-16T04:32:24.382Z,3.50
2018-02-16T04:34:51.879Z,3.50
2018-02-16T04:37:19.353Z,3.50
2018-02-16T04:39:46.804Z,3.50
2018-02-16T04:42:14.249Z,3.50
2018-02-16T04:44:41.708Z,3.50
2018-02-16T04:47:09.164Z,3.50
2018-02-16T04:49:36.620Z,3.50
2018-02-16T04:52:04.080Z,3.50
2018-02-16T04:54:31.575Z,3.40
2018-02-16T04:56:59.020Z,3.50
2018-02-16T04:59:26.499Z,3.40
2018-02-16T05:01:53.952Z,3.40
2018-02-16T05:04:21.401Z,3.30
2018-02-16T05:06:48.888Z,3.30
2018-02-16T05:09:16.348Z,3.30
2018-02-16T05:11:43.803Z,3.20
2018-02-16T05:14:11.248Z,3.20
2018-02-16T05:16:38.731Z,3.10
2018-02-16T05:19:06.185Z,3.10
2018-02-16T05:21:33.725Z,3.10
2018-02-16T05:24:01.168Z,3.00
2018-02-16T05:26:28.615Z,3.00
2018-02-16T05:28:56.484Z,2.90
2018-02-16T05:31:23.936Z,2.90
2018-02-16T05:33:51.388Z,2.80
2018-02-16T05:36:18.831Z,2.70
2018-02-16T05:38:46.287Z,2.70
2018-02-16T05:41:13.750Z,2.60
2018-02-16T05:43:41.221Z,2.60
2018-02-16T05:46:08.675Z,2.50
2018-02-16T05:48:36.121Z,2.50
2018-02-16T05:51:03.580Z,2.50
2018-02-16T05:53:31.052Z,2.50
2018-02-16T05:55:58.541Z,2.50
2018-02-16T05:58:25.993Z,2.50
2018-02-16T06:00:53.451Z,2.50
2018-02-16T06:03:20.904Z,2.40
2018-02-16T06:05:48.357Z,2.40
2018-02-16T06:08:15.808Z,2.40
2018-02-16T06:10:43.519Z,2.40
2018-02-16T06:13:10.976Z,2.40
2018-02-16T06:15:38.434Z,2.30
2018-02-16T06:18:05.881Z,2.30
2018-02-16T06:20:33.339Z,2.30
2018-02-16T06:23:00.797Z,2.30
2018-02-16T06:25:28.342Z,2.30
2018-02-16T06:27:55.780Z,2.30
2018-02-16T06:30:23.712Z,2.30
2018-02-16T06:32:51.294Z,2.30
2018-02-16T06:35:18.755Z,2.30
2018-02-16T06:37:46.212Z,2.30
2018-02-16T06:40:13.756Z,2.30
2018-02-16T06:42:41.226Z,2.30
2018-02-16T06:45:08.789Z,2.30
2018-02-16T06:47:36.358Z,2.30
2018-02-16T06:50:04.433Z,2.30
2018-02-16T06:52:31.882Z,2.30
2018-02-16T06:54:59.336Z,2.30
2018-02-16T06:57:26.811Z,2.30
2018-02-16T06:59:54.341Z,2.30
2018-02-16T07:02:21.783Z,2.30
2018-02-16T07:04:49.640Z,2.20
2018-02-16T07:07:17.484Z,2.20
2018-02-16T07:09:45.050Z,2.20
2018-02-16T07:12:12.517Z,2.30
2018-02-16T07:14:39.976Z,2.30
2018-02-16T07:17:07.540Z,2.40
2018-02-16T07:19:35.058Z,2.40
2018-02-16T07:22:02.508Z,2.40
2018-02-16T07:24:29.973Z,2.40
2018-02-16T07:26:57.420Z,2.40
2018-02-16T07:29:25.313Z,2.50
2018-02-16T07:31:52.810Z,2.50
2018-02-16T07:34:20.264Z,2.50
2018-02-16T07:36:47.737Z,2.50
2018-02-16T07:39:15.298Z,2.50
2018-02-16T07:41:42.740Z,2.50
2018-02-16T07:44:10.228Z,2.50
2018-02-16T07:46:37.686Z,2.50
2018-02-16T07:49:05.143Z,2.60
2018-02-16T07:51:32.608Z,2.60
2018-02-16T07:54:00.065Z,2.60
2018-02-16T07:56:27.532Z,2.70
2018-02-16T07:58:54.999Z,2.60
2018-02-16T08:01:22.555Z,2.60
2018-02-16T08:03:50.126Z,2.60
2018-02-16T08:06:17.572Z,2.60
2018-02-16T08:08:45.049Z,2.60
2018-02-16T08:11:12.572Z,2.70
2018-02-16T08:13:40.076Z,2.70
2018-02-16T08:16:07.628Z,2.80
2018-02-16T08:18:35.190Z,2.80
2018-02-16T08:21:02.665Z,2.90
2018-02-16T08:23:30.124Z,2.90
2018-02-16T08:25:57.802Z,2.90
2018-02-16T08:28:25.245Z,2.90
2018-02-16T08:30:52.716Z,2.90
2018-02-16T08:33:20.239Z,2.90
2018-02-16T08:35:47.749Z,3.00
2018-02-16T08:38:15.181Z,3.00
2018-02-16T08:40:42.644Z,3.00
2018-02-16T08:43:10.498Z,3.10
2018-02-16T08:45:37.948Z,3.20
2018-02-16T08:48:05.474Z,3.20
2018-02-16T08:50:33.021Z,3.30
2018-02-16T08:53:00.587Z,3.40
2018-02-16T08:55:28.056Z,3.50
2018-02-16T08:57:55.805Z,3.50
2018-02-16T09:00:23.269Z,3.60
2018-02-16T09:02:50.730Z,3.70
2018-02-16T09:05:18.196Z,3.80
2018-02-16T09:07:45.681Z,3.90
2018-02-16T09:10:13.221Z,4.00
2018-02-16T09:12:40.672Z,4.00
2018-02-16T09:15:08.147Z,4.10
2018-02-16T09:17:35.677Z,4.20
2018-02-16T09:20:03.136Z,4.30
2018-02-16T09:22:30.624Z,4.40
2018-02-16T09:24:58.907Z,4.50
2018-02-16T09:27:26.372Z,4.60
2018-02-16T09:29:53.965Z,4.70
2018-02-16T09:32:21.404Z,4.80
2018-02-16T09:34:48.856Z,4.90
2018-02-16T09:37:17.185Z,5.00
2018-02-16T09:39:46.219Z,5.20
2018-02-16T09:42:13.699Z,5.30
2018-02-16T09:44:41.188Z,5.40
2018-02-16T09:47:08.684Z,5.50
2018-02-16T09:49:36.213Z,5.60
2018-02-16T09:52:05.132Z,5.90
2018-02-16T09:54:33.049Z,6.10
2018-02-16T09:57:00.933Z,6.40
2018-02-16T09:59:28.397Z,6.40
2018-02-16T10:01:55.845Z,6.60
2018-02-16T10:04:23.337Z,6.80
2018-02-16T10:06:50.796Z,7.00
2018-02-16T10:09:18.256Z,7.20
2018-02-16T10:11:45.799Z,7.40
2018-02-16T10:14:14.633Z,7.60
2018-02-16T10:16:42.484Z,8.00
2018-02-16T10:19:10.024Z,8.00
2018-02-16T10:21:37.479Z,8.10
2018-02-16T10:24:05.060Z,8.30
2018-02-16T10:26:32.485Z,8.40
2018-02-16T10:28:59.965Z,8.40
2018-02-16T10:31:27.443Z,8.50
2018-02-16T10:33:54.901Z,8.60
2018-02-16T10:36:22.472Z,8.70
2018-02-16T10:38:49.941Z,8.80
2018-02-16T10:41:17.400Z,8.90
2018-02-16T10:43:44.924Z,8.90
2018-02-16T10:46:12.359Z,8.90
2018-02-16T10:48:40.256Z,8.90
2018-02-16T10:51:07.865Z,8.90
2018-02-16T10:53:35.319Z,8.90
2018-02-16T10:56:03.185Z,8.90
2018-02-16T10:58:30.658Z,8.90
2018-02-16T11:01:03.724Z,8.90
2018-02-16T11:03:36.900Z,8.90
2018-02-16T11:06:04.923Z,8.90
2018-02-16T11:08:38.172Z,8.90
2018-02-16T11:11:05.960Z,8.90
2018-02-16T11:13:33.420Z,8.80
2018-02-16T11:16:00.865Z,8.80
2018-02-16T11:18:28.343Z,8.70
2018-02-16T11:20:55.769Z,8.70
2018-02-16T11:23:23.221Z,8.60
2018-02-16T11:25:51.066Z,8.60
2018-02-16T11:28:18.512Z,8.60
2018-02-16T11:30:45.990Z,8.50
2018-02-16T11:33:13.536Z,8.60
2018-02-16T11:35:41.005Z,8.60
2018-02-16T11:38:08.480Z,8.60
2018-02-16T11:40:35.922Z,8.60
2018-02-16T11:43:03.884Z,8.60
2018-02-16T11:45:31.355Z,8.60
2018-02-16T11:47:58.812Z,8.60
2018-02-16T11:50:26.272Z,8.70
2018-02-16T11:52:53.737Z,8.60
2018-02-16T11:55:21.190Z,8.60
2018-02-16T11:57:48.672Z,8.60
2018-02-16T12:00:16.178Z,8.70
2018-02-16T12:02:44.104Z,8.70
2018-02-16T12:05:11.563Z,8.70
2018-02-16T12:07:39.059Z,8.80
2018-02-16T12:10:06.553Z,8.90
2018-02-16T12:12:34.052Z,8.90
2018-02-16T12:15:01.613Z,8.90
2018-02-16T12:17:29.127Z,8.90
2018-02-16T12:19:57.017Z,9.00
2018-02-16T12:22:24.516Z,9.00
2018-02-16T12:24:51.968Z,9.00
2018-02-16T12:27:19.416Z,9.20
2018-02-16T12:29:46.908Z,9.30
2018-02-16T12:32:14.366Z,9.40
2018-02-16T12:34:41.814Z,9.50
2018-02-16T12:37:09.272Z,9.50
2018-02-16T12:39:36.755Z,9.60
2018-02-16T12:42:04.313Z,9.60
2018-02-16T12:44:31.760Z,9.70
2018-02-16T12:46:59.220Z,9.70
2018-02-16T12:49:26.663Z,9.80
2018-02-16T12:51:54.117Z,9.90
2018-02-16T12:54:21.575Z,9.90
2018-02-16T12:56:49.025Z,9.80
2018-02-16T12:59:16.961Z,10.10
2018-02-16T13:01:45.483Z,10.00
2018-02-16T13:04:12.969Z,10.20
2018-02-16T13:06:40.485Z,10.20
2018-02-16T13:09:07.957Z,10.20
2018-02-16T13:11:35.830Z,10.20
2018-02-16T13:14:03.351Z,10.20
2018-02-16T13:16:30.974Z,10.20
2018-02-16T13:18:58.852Z,10.20
2018-02-16T13:21:26.713Z,10.30
2018-02-16T13:23:54.653Z,10.30
2018-02-16T13:26:22.225Z,10.30
2018-02-16T13:28:49.784Z,10.30
2018-02-16T13:31:17.273Z,10.30
2018-02-16T13:33:45.221Z,10.30
2018-02-16T13:36:12.729Z,10.30
2018-02-16T13:38:40.586Z,10.20
2018-02-16T13:41:08.452Z,10.20
2018-02-16T13:43:36.357Z,10.20
2018-02-16T13:46:03.876Z,10.20
2018-02-16T13:48:31.760Z,10.20
2018-02-16T13:50:59.612Z,10.30
2018-02-16T13:53:27.381Z,10.30
2018-02-16T13:55:54.995Z,10.30
2018-02-16T13:58:22.460Z,10.30
2018-02-16T14:00:49.892Z,10.40
2018-02-16T14:03:17.745Z,10.50
2018-02-16T14:05:45.286Z,10.50
2018-02-16T14:08:12.861Z,10.50
2018-02-16T14:10:40.301Z,10.50
2018-02-16T14:13:07.787Z,10.50
2018-02-16T14:15:35.353Z,10.50
2018-02-16T14:18:02.809Z,10.50
2018-02-16T14:20:30.269Z,10.60
2018-02-16T14:22:57.736Z,10.60
2018-02-16T14:25:25.180Z,10.50
2018-02-16T14:27:52.773Z,10.60
2018-02-16T14:30:20.623Z,10.70
2018-02-16T14:32:48.085Z,10.70
2018-02-16T14:35:15.660Z,10.80
2018-02-16T14:37:43.148Z,10.80
2018-02-16T14:40:10.998Z,11.00
2018-02-16T14:42:38.550Z,11.00
2018-02-16T14:45:06.026Z,11.10
2018-02-16T14:47:33.573Z,11.20
2018-02-16T14:50:01.049Z,11.20
2018-02-16T14:52:28.624Z,11.20
2018-02-16T14:54:56.540Z,11.40
2018-02-16T14:57:24.021Z,11.40
2018-02-16T14:59:51.494Z,11.50
2018-02-16T15:02:18.977Z,11.60
2018-02-16T15:04:46.517Z,11.60
2018-02-16T15:07:13.996Z,11.70
2018-02-16T15:09:41.456Z,11.70
2018-02-16T15:12:08.949Z,11.80
2018-02-16T15:14:36.392Z,11.80
2018-02-16T15:17:04.865Z,11.80
2018-02-16T15:19:32.417Z,11.90
2018-02-16T15:21:59.897Z,11.90
2018-02-16T15:24:27.381Z,11.90
2018-02-16T15:26:55.228Z,11.70
2018-02-16T15:29:22.732Z,11.70
2018-02-16T15:31:50.195Z,11.70
2018-02-16T15:34:17.652Z,11.60
2018-02-16T15:36:45.132Z,11.40
2018-02-16T15:39:12.598Z,11.40
2018-02-16T15:41:40.049Z,11.30
2018-02-16T15:44:07.964Z,11.20
2018-02-16T15:49:26.436Z,11.00
2018-02-16T15:51:53.888Z,10.80
2018-02-16T15:54:21.404Z,10.70
2018-02-16T15:56:48.900Z,10.60
2018-02-16T15:59:16.524Z,10.40
2018-02-16T16:01:44.095Z,10.30
2018-02-16T16:04:11.761Z,10.20
2018-02-16T16:06:39.326Z,10.20
2018-02-16T16:09:06.989Z,10.10
2018-02-16T16:11:34.464Z,10.00
2018-02-16T16:14:01.984Z,9.90
2018-02-16T16:16:29.493Z,9.90
2018-02-16T16:18:56.992Z,9.80
2018-02-16T16:21:24.487Z,9.80
2018-02-16T16:23:52.451Z,9.60
2018-02-16T16:26:20.035Z,9.60
2018-02-16T16:28:47.513Z,9.50
2018-02-16T16:31:15.040Z,9.40
2018-02-16T16:33:42.908Z,9.30
2018-02-16T16:36:10.513Z,9.30
2018-02-16T16:38:37.984Z,9.20
2018-02-16T16:41:05.511Z,9.10
2018-02-16T16:43:33.396Z,8.90
2018-02-16T16:46:01.606Z,8.90
2018-02-16T16:51:20.453Z,8.70
2018-02-16T16:53:47.982Z,8.60
2018-02-16T16:56:15.465Z,8.60
2018-02-16T16:58:43.421Z,8.40
2018-02-16T17:01:10.917Z,8.40
2018-02-16T17:03:38.388Z,8.30
2018-02-16T17:06:05.929Z,8.20
2018-02-16T17:08:33.411Z,8.20
2018-02-16T17:11:00.897Z,8.10
2018-02-16T17:13:28.391Z,8.00
2018-02-16T17:15:56.282Z,7.90
2018-02-16T17:18:23.785Z,7.90
2018-02-16T17:20:51.272Z,7.80
2018-02-16T17:23:18.836Z,7.80
2018-02-16T17:25:46.345Z,7.70
2018-02-16T17:28:13.841Z,7.60
2018-02-16T17:30:41.315Z,7.60
2018-02-16T17:33:08.811Z,7.50
2018-02-16T17:35:36.698Z,7.30
2018-02-16T17:38:04.632Z,7.20
2018-02-16T17:40:32.114Z,7.20
2018-02-16T17:43:00.079Z,7.10
2018-02-16T17:45:27.645Z,7.10
2018-02-16T17:47:55.857Z,6.90
2018-02-16T17:50:23.522Z,6.90
2018-02-16T17:52:51.042Z,6.80
2018-02-16T17:55:19.006Z,6.60
2018-02-16T17:57:46.711Z,6.60
2018-02-16T18:00:14.187Z,6.50
2018-02-16T18:02:41.636Z,6.50
2018-02-16T18:05:09.158Z,6.40
2018-02-16T18:07:36.624Z,6.30
2018-02-16T18:10:04.080Z,6.30
2018-02-16T18:12:31.567Z,6.20
2018-02-16T18:14:59.432Z,6.10
2018-02-16T18:17:26.967Z,6.10
2018-02-16T18:19:54.782Z,6.00
2018-02-16T18:22:22.642Z,5.90
2018-02-16T18:24:50.497Z,5.90
2018-02-16T18:27:17.964Z,5.90
2018-02-16T18:29:45.879Z,5.80
2018-02-16T18:32:13.337Z,5.80
2018-02-16T18:34:40.794Z,5.70
2018-02-16T18:37:08.277Z,5.70
2018-02-16T18:39:35.737Z,5.60
2018-02-16T18:42:03.201Z,5.60
2018-02-16T18:44:30.663Z,5.50
2018-02-16T18:46:58.114Z,5.50
2018-02-16T18:49:25.593Z,5.40
2018-02-16T18:51:53.037Z,5.40
2018-02-16T18:54:20.608Z,5.30
2018-02-16T18:56:48.183Z,5.20
2018-02-16T18:59:15.680Z,5.20
2018-02-16T19:01:43.129Z,5.10
2018-02-16T19:04:10.574Z,5.10
2018-02-16T19:06:38.485Z,5.00
2018-02-16T19:09:05.940Z,5.00
2018-02-16T19:11:33.441Z,4.90
2018-02-16T19:14:00.910Z,4.90
2018-02-16T19:16:28.441Z,4.90
2018-02-16T19:18:55.988Z,4.80
2018-02-16T19:21:23.962Z,4.80
2018-02-16T19:23:51.537Z,4.80
2018-02-16T19:26:19.001Z,4.70
2018-02-16T19:28:46.503Z,4.70
2018-02-16T19:31:14.043Z,4.70
2018-02-16T19:33:42.541Z,4.60
2018-02-16T19:36:10.064Z,4.60
2018-02-16T19:38:37.600Z,4.60
2018-02-16T19:41:05.105Z,4.50
2018-02-16T19:43:32.644Z,4.50
2018-02-16T19:46:00.136Z,4.40
2018-02-16T19:51:18.404Z,4.40
2018-02-16T19:53:45.861Z,4.40
2018-02-16T19:56:13.714Z,4.30
2018-02-16T19:58:41.252Z,4.30
2018-02-16T20:01:08.724Z,4.30
2018-02-16T20:03:36.310Z,4.30
2018-02-16T20:06:03.852Z,4.20
2018-02-16T20:08:31.320Z,4.20
2018-02-16T20:10:59.185Z,4.20
2018-02-16T20:13:26.746Z,4.20
2018-02-16T20:15:54.262Z,4.10
2018-02-16T20:18:21.730Z,4.00
2018-02-16T20:20:49.184Z,4.00
2018-02-16T20:23:16.661Z,3.90
2018-02-16T20:25:44.169Z,3.90
2018-02-16T20:28:11.674Z,3.70
2018-02-16T20:30:39.180Z,3.80
2018-02-16T20:33:06.620Z,3.80
2018-02-16T20:35:34.082Z,3.80
2018-02-16T20:38:01.541Z,3.80
2018-02-16T20:40:29.189Z,3.70
2018-02-16T20:42:56.656Z,3.70
2018-02-16T20:45:24.157Z,3.70
2018-02-16T20:47:51.608Z,3.70
2018-02-16T20:50:19.065Z,3.70
2018-02-16T20:52:46.559Z,3.70
2018-02-16T20:55:14.002Z,3.60
2018-02-16T20:57:41.466Z,3.60
2018-02-16T21:00:08.928Z,3.60
2018-02-16T21:02:36.387Z,3.50
2018-02-16T21:05:03.888Z,3.50
2018-02-16T21:07:31.829Z,3.40
2018-02-16T21:12:50.730Z,3.40
2018-02-16T21:15:18.193Z,3.30
2018-02-16T21:17:46.060Z,3.20
2018-02-16T21:20:13.935Z,3.10
2018-02-16T21:22:41.846Z,3.10
2018-02-16T21:25:09.332Z,3.10
2018-02-16T21:27:36.851Z,3.10
2018-02-16T21:30:04.351Z,3.10
2018-02-16T21:32:31.800Z,3.10
2018-02-16T21:34:59.303Z,3.00
2018-02-16T21:37:27.029Z,3.00
2018-02-16T21:39:54.500Z,3.00
2018-02-16T21:42:21.969Z,3.00
2018-02-16T21:44:49.493Z,3.00
2018-02-16T21:47:16.979Z,3.00
2018-02-16T21:49:45.181Z,3.00
2018-02-16T21:52:12.661Z,2.90
2018-02-16T21:54:40.617Z,2.90
2018-02-16T21:57:08.173Z,2.90
2018-02-16T21:59:35.735Z,2.90
2018-02-16T22:02:03.224Z,2.90
2018-02-16T22:04:31.103Z,2.90
2018-02-16T22:06:59.064Z,2.90
2018-02-16T22:09:27.054Z,2.80
2018-02-16T22:11:54.919Z,2.80
2018-02-16T22:14:22.784Z,2.80
2018-02-16T22:16:50.656Z,2.70
2018-02-16T22:19:18.561Z,2.70
2018-02-16T22:21:46.492Z,2.70
2018-02-16T22:24:14.056Z,2.70
2018-02-16T22:26:41.551Z,2.70
2018-02-16T22:29:09.078Z,2.60
2018-02-16T22:31:36.528Z,2.60
2018-02-16T22:34:04.090Z,2.60
2018-02-16T22:36:31.570Z,2.60
2018-02-16T22:38:59.104Z,2.60
2018-02-16T22:41:26.576Z,2.60
2018-02-16T22:43:54.140Z,2.60
2018-02-16T22:46:21.621Z,2.50
2018-02-16T22:48:49.573Z,2.50
2018-02-16T22:51:17.356Z,2.50
2018-02-16T22:53:44.808Z,2.50
2018-02-16T22:56:12.288Z,2.50
2018-02-16T22:58:40.257Z,2.40
2018-02-16T23:01:07.718Z,2.40
2018-02-16T23:03:35.633Z,2.40
2018-02-16T23:06:03.510Z,2.40
2018-02-16T23:08:31.375Z,2.40
2018-02-16T23:10:58.813Z,2.40
2018-02-16T23:13:27.128Z,2.40
2018-02-16T23:15:54.719Z,2.40
2018-02-16T23:18:22.179Z,2.40
2018-02-16T23:20:49.672Z,2.40
2018-02-16T23:23:17.131Z,2.40
2018-02-16T23:25:45.168Z,2.30
2018-02-16T23:28:12.770Z,2.40
2018-02-16T23:30:40.320Z,2.40
2018-02-16T23:33:08.621Z,2.40
2018-02-16T23:35:36.162Z,2.40
2018-02-16T23:38:03.639Z,2.40
2018-02-16T23:40:31.506Z,2.40
2018-02-16T23:42:59.050Z,2.40
2018-02-16T23:45:26.631Z,2.30
2018-02-16T23:47:54.120Z,2.30
2018-02-16T23:50:21.598Z,2.20
2018-02-16T23:52:49.257Z,2.20
2018-02-16T23:55:16.833Z,2.20
2018-02-16T23:57:44.435Z,2.20
